Time;durP1;ratioP1;P1;durP2;ratioP2;P2;SDS_P1;SDS_P2;PMS_P1;PMS_P2;Temp;Humidity;BMP_temperature;BMP_pressure;BME280_temperature;BME280_humidity;BME280_pressure;Samples;Min_cycle;Max_cycle;Signal;HPM_P1;HPM_P2
2023/12/28 00:00:31;;;;;;;5.57;2.58;;;11.40;99.90;;;;;;6336540;22;19999;-86
2023/12/28 00:03:02;;;;;;;5.15;3.00;;;9.90;99.90;;;;;;6337734;22;20331;-86
2023/12/28 00:05:48;;;;;;;5.95;3.00;;;10.60;99.90;;;;;;6338034;22;20069;-86
2023/12/28 00:08:14;;;;;;;5.53;3.15;;;10.80;99.90;;;;;;6324717;22;20015;-86
2023/12/28 00:11:06;;;;;;;7.53;3.10;;;11.40;99.90;;;;;;6337316;22;20507;-86
2023/12/28 00:13:50;;;;;;;3.30;2.75;;;10.60;99.90;;;;;;6338689;22;20002;-85
2023/12/28 00:16:17;;;;;;;4.07;2.88;;;10.60;99.90;;;;;;6336398;22;20009;-86
2023/12/28 00:19:01;;;;;;;3.35;2.72;;;11.30;99.90;;;;;;6337651;22;20006;-86
2023/12/28 00:21:30;;;;;;;4.68;3.17;;;10.60;99.90;;;;;;6309132;22;20437;-85
2023/12/28 00:23:59;;;;;;;6.10;2.92;;;11.00;99.90;;;;;;6336423;22;20082;-86
2023/12/28 00:26:34;;;;;;;3.13;2.80;;;11.70;99.90;;;;;;6336987;22;19999;-85
2023/12/28 00:29:02;;;;;;;3.55;2.70;;;11.30;99.90;;;;;;6338186;22;20007;-85
2023/12/28 00:31:31;;;;;;;5.10;2.75;;;11.00;99.90;;;;;;6336543;22;20322;-86
2023/12/28 00:34:09;;;;;;;4.97;3.13;;;11.30;99.90;;;;;;6349984;22;20015;-87
2023/12/28 00:36:34;;;;;;;5.75;3.30;;;11.70;99.90;;;;;;6338749;22;20014;-86
2023/12/28 00:39:00;;;;;;;5.95;3.42;;;11.50;99.90;;;;;;6338487;22;20025;-87
2023/12/28 00:41:35;;;;;;;4.75;2.80;;;10.90;99.90;;;;;;6335402;22;20071;-86
2023/12/28 00:44:05;;;;;;;5.78;2.70;;;11.40;99.90;;;;;;6337556;22;20022;-87
2023/12/28 00:46:33;;;;;;;7.40;3.07;;;10.50;99.90;;;;;;6337886;22;20007;-87
2023/12/28 00:48:59;;;;;;;5.55;2.80;;;11.70;99.90;;;;;;6336043;22;20002;-86
2023/12/28 00:51:25;;;;;;;4.20;2.83;;;11.70;99.90;;;;;;6337237;22;20002;-85
2023/12/28 00:53:53;;;;;;;7.32;2.85;;;11.60;99.90;;;;;;6336044;22;19998;-87
2023/12/28 00:56:34;;;;;;;4.50;2.75;;;11.70;99.90;;;;;;6337802;22;20021;-86
2023/12/28 00:59:02;;;;;;;4.38;2.40;;;11.70;99.90;;;;;;6337707;22;20071;-87
2023/12/28 01:01:30;;;;;;;6.07;2.97;;;11.40;99.90;;;;;;6338009;22;20006;-85
2023/12/28 01:03:56;;;;;;;8.95;3.42;;;10.80;99.90;;;;;;6336766;22;20003;-86
2023/12/28 01:06:22;;;;;;;7.53;2.88;;;11.40;99.90;;;;;;6336783;22;19999;-87
2023/12/28 01:08:48;;;;;;;5.70;2.88;;;10.40;99.90;;;;;;6337059;22;20446;-88
2023/12/28 01:11:22;;;;;;;5.13;2.70;;;11.60;99.90;;;;;;6338398;22;20061;-86
2023/12/28 01:13:54;;;;;;;7.43;2.78;;;10.50;99.90;;;;;;6335317;22;20007;-85
2023/12/28 01:16:35;;;;;;;10.15;2.70;;;11.40;99.90;;;;;;6335925;22;20338;-88
2023/12/28 01:19:10;;;;;;;4.30;2.80;;;11.80;99.90;;;;;;6334471;22;20002;-86
2023/12/28 01:21:57;;;;;;;5.05;3.30;;;11.30;99.90;;;;;;6334301;22;20006;-86
2023/12/28 01:24:24;;;;;;;7.18;3.20;;;9.70;99.90;;;;;;6336912;22;20422;-84
2023/12/28 01:27:05;;;;;;;5.28;3.33;;;11.40;99.90;;;;;;6335145;22;20003;-85
2023/12/28 01:29:30;;;;;;;5.43;2.75;;;11.40;99.90;;;;;;6337036;22;19999;-86
2023/12/28 01:32:05;;;;;;;4.38;2.80;;;10.40;99.90;;;;;;6336317;22;20003;-88
2023/12/28 01:34:44;;;;;;;6.25;3.22;;;10.40;99.90;;;;;;6337429;22;20435;-87
2023/12/28 01:37:25;;;;;;;7.30;2.97;;;10.40;99.90;;;;;;6334514;22;20034;-85
2023/12/28 01:39:51;;;;;;;5.78;3.30;;;11.30;99.90;;;;;;6335630;22;20003;-88
2023/12/28 01:42:39;;;;;;;4.32;2.90;;;11.60;99.90;;;;;;6336702;22;20072;-88
2023/12/28 01:45:05;;;;;;;4.97;2.53;;;9.60;99.90;;;;;;6336928;22;20005;-86
2023/12/28 01:47:35;;;;;;;7.68;3.05;;;10.40;99.90;;;;;;6337162;22;20003;-86
2023/12/28 01:50:17;;;;;;;5.07;2.70;;;11.60;99.90;;;;;;6336169;22;20013;-87
2023/12/28 01:53:37;;;;;;;6.60;2.53;;;10.40;99.90;;;;;;6344701;22;20071;-87
2023/12/28 01:56:19;;;;;;;8.73;2.67;;;10.50;99.90;;;;;;6339683;22;20003;-87
2023/12/28 02:01:26;;;;;;;9.57;2.45;;;10.50;99.90;;;;;;6315065;22;20019;-87
2023/12/28 02:04:10;;;;;;;7.53;2.85;;;12.20;99.90;;;;;;6320261;22;20405;-87
2023/12/28 02:06:45;;;;;;;6.13;2.33;;;10.50;99.90;;;;;;6317813;22;19999;-88
2023/12/28 02:09:20;;;;;;;5.40;2.55;;;11.50;99.90;;;;;;6306699;22;20010;-88
2023/12/28 02:11:45;;;;;;;12.07;2.38;;;11.10;99.90;;;;;;6306383;22;20404;-87
2023/12/28 02:14:17;;;;;;;5.63;2.60;;;11.20;99.90;;;;;;6303791;22;19999;-86
2023/12/28 02:20:09;;;;;;;3.13;2.13;;;10.50;99.90;;;;;;6306638;22;20050;-87
2023/12/28 02:22:46;;;;;;;9.88;2.78;;;10.50;99.90;;;;;;6305804;22;20026;-87
2023/12/28 02:25:21;;;;;;;4.65;2.28;;;11.40;99.90;;;;;;6303803;22;20037;-87
2023/12/28 02:28:09;;;;;;;7.82;2.63;;;11.70;99.90;;;;;;6304777;22;19999;-87
2023/12/28 02:30:44;;;;;;;5.45;2.10;;;10.60;99.90;;;;;;6305516;22;20003;-87
2023/12/28 02:33:30;;;;;;;3.78;2.10;;;11.30;99.90;;;;;;6306083;22;20006;-87
2023/12/28 02:36:10;;;;;;;6.60;2.47;;;11.40;99.90;;;;;;6306188;22;20011;-88
2023/12/28 02:38:48;;;;;;;;;;;;;;;;;;;;;
2023/12/28 02:41:36;;;;;;;4.65;2.97;;;11.50;99.90;;;;;;6261971;22;20078;-89
2023/12/28 02:44:03;;;;;;;6.95;2.30;;;10.50;99.90;;;;;;6307195;22;19999;-87
2023/12/28 02:46:29;;;;;;;6.05;2.45;;;11.10;99.90;;;;;;6307638;22;20074;-88
2023/12/28 02:49:01;;;;;;;9.23;2.00;;;11.40;99.90;;;;;;6308328;22;20078;-88
2023/12/28 02:51:37;;;;;;;3.28;2.22;;;11.60;99.90;;;;;;6307310;22;20058;-86
2023/12/28 02:54:05;;;;;;;9.15;2.65;;;11.60;99.90;;;;;;6307422;22;20082;-87
2023/12/28 02:56:32;;;;;;;8.23;2.10;;;10.50;99.90;;;;;;6307584;22;20058;-87
2023/12/28 02:59:01;;;;;;;4.82;2.40;;;11.60;99.90;;;;;;6306974;22;20000;-87
2023/12/28 03:01:36;;;;;;;4.57;1.98;;;9.90;99.90;;;;;;6306414;22;19999;-87
2023/12/28 03:04:03;;;;;;;10.18;2.40;;;10.00;99.90;;;;;;6306483;22;20447;-86
2023/12/28 03:06:40;;;;;;;5.50;2.58;;;10.50;99.90;;;;;;6307328;22;20033;-88
2023/12/28 03:09:07;;;;;;;10.85;2.65;;;11.40;99.90;;;;;;6307893;22;20027;-88
2023/12/28 03:11:34;;;;;;;6.72;1.95;;;11.50;99.90;;;;;;6307907;22;20033;-87
2023/12/28 03:14:01;;;;;;;7.07;2.30;;;10.50;99.90;;;;;;6314940;22;20001;-85
2023/12/28 03:17:00;;;;;;;6.13;2.17;;;11.30;99.90;;;;;;6318136;22;20091;-85
2023/12/28 03:19:51;;;;;;;9.98;3.13;;;10.50;99.90;;;;;;6321665;22;20025;-84
2023/12/28 03:22:17;;;;;;;4.60;2.70;;;10.50;99.90;;;;;;6338575;22;20082;-85
2023/12/28 03:24:43;;;;;;;8.93;2.55;;;11.70;99.90;;;;;;6336262;22;20061;-87
2023/12/28 03:27:11;;;;;;;7.43;2.38;;;11.60;99.90;;;;;;6337365;22;20364;-88
2023/12/28 03:29:48;;;;;;;5.45;2.47;;;10.90;99.90;;;;;;6338561;22;20003;-87
2023/12/28 03:32:18;;;;;;;3.58;2.30;;;11.30;99.90;;;;;;6338099;22;20304;-89
2023/12/28 03:34:53;;;;;;;5.00;2.55;;;11.60;99.90;;;;;;6336573;22;20003;-88
2023/12/28 03:37:19;;;;;;;5.18;1.92;;;10.20;99.90;;;;;;6337628;22;20018;-86
2023/12/28 03:39:45;;;;;;;5.45;2.25;;;11.50;99.90;;;;;;6337897;22;19995;-86
2023/12/28 03:42:12;;;;;;;7.70;2.60;;;11.80;99.90;;;;;;6338207;22;20006;-86
2023/12/28 03:44:37;;;;;;;4.78;2.42;;;10.40;99.90;;;;;;6337491;22;20331;-88
2023/12/28 03:47:06;;;;;;;7.00;2.15;;;11.10;99.90;;;;;;6336840;22;20017;-88
2023/12/28 03:49:35;;;;;;;5.43;1.88;;;10.90;99.90;;;;;;6337528;22;19999;-89
2023/12/28 03:52:03;;;;;;;4.75;2.28;;;11.20;99.90;;;;;;6337415;22;20006;-87
2023/12/28 03:54:28;;;;;;;6.30;2.17;;;10.30;99.90;;;;;;6338491;22;20323;-85
2023/12/28 03:56:54;;;;;;;10.90;2.47;;;11.30;99.90;;;;;;6335339;22;20011;-87
2023/12/28 03:59:23;;;;;;;10.63;2.53;;;11.30;99.90;;;;;;6336089;22;20003;-86
2023/12/28 04:01:48;;;;;;;13.23;2.78;;;10.40;99.90;;;;;;6336298;22;20007;-85
2023/12/28 04:04:25;;;;;;;8.75;2.40;;;11.10;99.90;;;;;;6336730;22;20558;-87
2023/12/28 04:06:51;;;;;;;10.88;2.42;;;11.20;99.90;;;;;;6335905;22;20106;-87
2023/12/28 04:09:17;;;;;;;4.75;1.90;;;10.40;99.90;;;;;;6335972;22;20060;-87
2023/12/28 04:11:43;;;;;;;7.38;2.53;;;11.50;99.90;;;;;;6338013;22;20007;-86
2023/12/28 04:14:09;;;;;;;10.73;2.97;;;10.80;99.90;;;;;;6337820;22;20029;-86
2023/12/28 04:16:39;;;;;;;11.95;2.83;;;11.10;99.90;;;;;;6337956;22;20094;-86
2023/12/28 04:19:08;;;;;;;6.82;3.17;;;11.60;99.90;;;;;;6334390;22;20566;-85
2023/12/28 04:21:37;;;;;;;11.88;2.45;;;11.00;99.90;;;;;;6336798;22;20010;-85
2023/12/28 04:24:06;;;;;;;7.55;2.63;;;10.40;99.90;;;;;;6338326;22;20308;-85
2023/12/28 04:26:33;;;;;;;14.75;3.08;;;10.40;99.90;;;;;;6336923;22;20030;-86
2023/12/28 04:29:04;;;;;;;13.23;2.88;;;11.40;99.90;;;;;;6338914;22;20085;-86
2023/12/28 04:31:30;;;;;;;;;;;11.40;99.90;;;;;;6337569;22;20327;-86
2023/12/28 04:34:01;;;;;;;8.40;2.85;;;10.40;99.90;;;;;;6334435;22;19903;-86
2023/12/28 04:36:41;;;;;;;10.32;2.00;;;11.60;99.90;;;;;;6354578;22;20113;-86
2023/12/28 04:39:15;;;;;;;8.43;2.42;;;11.30;99.90;;;;;;6337631;22;20033;-86
2023/12/28 04:41:41;;;;;;;7.90;2.72;;;11.20;99.90;;;;;;6336760;22;20093;-86
2023/12/28 04:44:07;;;;;;;10.20;2.20;;;11.30;99.90;;;;;;6335255;22;20386;-86
2023/12/28 04:46:47;;;;;;;7.15;2.00;;;10.50;99.90;;;;;;6336532;22;20485;-87
2023/12/28 04:49:13;;;;;;;9.15;2.13;;;10.90;99.90;;;;;;6335358;22;19995;-86
2023/12/28 04:52:15;;;;;;;;;;;;;;;;;;;;;
2023/12/28 04:54:43;;;;;;;12.65;2.50;;;11.00;99.90;;;;;;6328400;22;20506;-86
2023/12/28 04:57:09;;;;;;;14.18;2.35;;;10.50;99.90;;;;;;6335861;22;20010;-86
2023/12/28 04:59:54;;;;;;;9.32;2.10;;;10.60;99.90;;;;;;6335752;22;20003;-86
2023/12/28 05:02:20;;;;;;;7.07;2.08;;;10.60;99.90;;;;;;6334698;22;19995;-86
2023/12/28 05:04:51;;;;;;;13.68;3.47;;;11.10;99.90;;;;;;6335918;22;20018;-86
2023/12/28 05:07:19;;;;;;;;;;;11.20;99.90;;;;;;6336708;22;19999;-86
2023/12/28 05:09:51;;;;;;;13.48;2.53;;;10.60;99.90;;;;;;6334869;22;19902;-86
2023/12/28 05:12:18;;;;;;;10.35;2.38;;;10.60;99.90;;;;;;6337155;22;19999;-86
2023/12/28 05:14:44;;;;;;;11.55;2.30;;;11.40;99.90;;;;;;6336831;22;19995;-86
2023/12/28 05:17:17;;;;;;;8.10;2.22;;;10.70;99.90;;;;;;6337542;22;20025;-86
2023/12/28 05:19:49;;;;;;;12.98;2.42;;;11.60;99.90;;;;;;6344873;22;20001;-86
2023/12/28 05:22:17;;;;;;;12.70;2.80;;;10.20;99.90;;;;;;6347362;22;20007;-86
2023/12/28 05:24:54;;;;;;;12.20;2.72;;;11.50;99.90;;;;;;6345779;22;20058;-87
2023/12/28 05:27:27;;;;;;;10.80;2.05;;;11.60;99.90;;;;;;6336439;22;20041;-87
2023/12/28 05:29:53;;;;;;;15.88;2.90;;;11.00;99.90;;;;;;6336362;22;20072;-87
2023/12/28 05:32:19;;;;;;;14.55;3.50;;;10.70;99.90;;;;;;6336120;22;20415;-87
2023/12/28 05:34:55;;;;;;;;;;;;;;;;;;;;;
2023/12/28 05:37:22;;;;;;;10.55;3.20;;;11.90;99.90;;;;;;6334279;22;20519;-87
2023/12/28 05:39:48;;;;;;;11.75;2.60;;;10.80;99.90;;;;;;6335947;22;20010;-87
2023/12/28 05:42:14;;;;;;;15.27;3.00;;;10.80;99.90;;;;;;6334606;22;20007;-84
2023/12/28 05:44:40;;;;;;;14.15;3.15;;;11.70;99.90;;;;;;6335232;22;20408;-85
2023/12/28 05:47:11;;;;;;;11.90;3.13;;;11.20;99.90;;;;;;6334199;22;19998;-85
2023/12/28 05:49:37;;;;;;;12.07;2.00;;;11.50;99.90;;;;;;6335109;22;20007;-84
2023/12/28 05:52:04;;;;;;;15.05;2.38;;;10.80;99.90;;;;;;6334270;22;20021;-85
2023/12/28 05:54:30;;;;;;;12.50;3.03;;;10.80;99.90;;;;;;6334112;22;20007;-85
2023/12/28 05:57:11;;;;;;;22.17;3.88;;;11.70;99.90;;;;;;6349587;22;20018;-86
2023/12/28 05:59:41;;;;;;;17.25;3.60;;;12.00;99.90;;;;;;6337789;22;20017;-86
2023/12/28 06:02:07;;;;;;;13.23;2.60;;;11.70;99.90;;;;;;6334752;22;20003;-85
2023/12/28 06:04:33;;;;;;;17.05;2.97;;;11.80;99.90;;;;;;6335971;22;20009;-87
2023/12/28 06:06:59;;;;;;;17.83;2.70;;;12.10;99.90;;;;;;6335033;22;20007;-86
2023/12/28 06:09:27;;;;;;;16.00;3.25;;;11.70;99.90;;;;;;6335295;22;20415;-86
2023/12/28 06:11:53;;;;;;;17.70;3.40;;;11.90;99.90;;;;;;6334908;22;20128;-87
2023/12/28 06:14:24;;;;;;;21.17;2.78;;;11.80;99.90;;;;;;6336368;22;20003;-87
2023/12/28 06:16:50;;;;;;;18.63;3.97;;;11.60;99.90;;;;;;6337651;22;20363;-86
2023/12/28 06:19:18;;;;;;;20.05;2.83;;;11.30;99.90;;;;;;6337483;22;20025;-86
2023/12/28 06:22:01;;;;;;;14.85;4.18;;;11.80;99.90;;;;;;6336951;22;20090;-86
2023/12/28 06:24:33;;;;;;;16.13;3.42;;;10.80;99.90;;;;;;6336897;22;20007;-87
2023/12/28 06:27:05;;;;;;;15.73;2.88;;;11.70;99.90;;;;;;6337249;22;20439;-87
2023/12/28 06:29:31;;;;;;;16.75;2.83;;;10.90;99.90;;;;;;6336573;22;20084;-85
2023/12/28 06:32:00;;;;;;;21.73;4.18;;;11.10;99.90;;;;;;6334577;22;20007;-85
2023/12/28 06:34:27;;;;;;;16.63;3.65;;;11.70;99.90;;;;;;6333683;22;20109;-85
2023/12/28 06:37:01;;;;;;;24.70;4.07;;;10.90;99.90;;;;;;6337497;22;20327;-86
2023/12/28 06:39:27;;;;;;;23.42;3.70;;;11.60;99.90;;;;;;6335654;22;19999;-86
2023/12/28 06:41:58;;;;;;;21.35;3.63;;;11.80;99.90;;;;;;6336148;22;20435;-84
2023/12/28 06:44:37;;;;;;;;;;;12.30;99.90;;;;;;6337814;22;20079;-85
2023/12/28 06:47:09;;;;;;;15.02;3.08;;;10.80;99.90;;;;;;6336524;22;20374;-86
2023/12/28 06:49:44;;;;;;;17.27;4.18;;;11.60;99.90;;;;;;6337115;22;20390;-86
2023/12/28 06:52:13;;;;;;;16.35;3.42;;;10.90;99.90;;;;;;6336169;22;20439;-87
2023/12/28 06:54:45;;;;;;;19.00;3.67;;;10.70;99.90;;;;;;6335786;22;20003;-86
2023/12/28 06:57:23;;;;;;;22.05;3.80;;;11.60;99.90;;;;;;6336496;22;20003;-85
2023/12/28 06:59:48;;;;;;;21.88;3.15;;;11.70;99.90;;;;;;6334976;22;20011;-85
2023/12/28 07:02:17;;;;;;;12.98;2.78;;;11.00;99.90;;;;;;6335349;22;20052;-86
2023/12/28 07:04:43;;;;;;;21.00;3.13;;;11.60;99.90;;;;;;6336271;22;19999;-86
2023/12/28 07:07:09;;;;;;;13.85;3.00;;;11.70;99.90;;;;;;6335360;22;20309;-85
2023/12/28 07:09:49;;;;;;;18.05;3.33;;;11.70;99.90;;;;;;6336738;22;19994;-85
2023/12/28 07:12:15;;;;;;;19.23;4.07;;;11.60;99.90;;;;;;6335433;22;20296;-84
2023/12/28 07:14:41;;;;;;;20.75;3.08;;;11.70;99.90;;;;;;6336326;22;19995;-86
2023/12/28 07:17:17;;;;;;;17.08;2.75;;;11.60;99.90;;;;;;6344661;22;20037;-86
2023/12/28 07:19:57;;;;;;;19.42;3.33;;;10.60;99.90;;;;;;6342446;22;20007;-85
2023/12/28 07:22:30;;;;;;;;;;;11.40;99.90;;;;;;6335826;22;20450;-86
2023/12/28 07:24:56;;;;;;;20.63;3.28;;;10.70;99.90;;;;;;6335241;22;19903;-86
2023/12/28 07:27:21;;;;;;;22.33;4.32;;;11.90;99.90;;;;;;6334522;22;19999;-84
2023/12/28 07:29:56;;;;;;;18.15;3.50;;;10.80;99.90;;;;;;6336278;22;20007;-85
2023/12/28 07:32:25;;;;;;;13.15;2.80;;;10.60;99.90;;;;;;6336774;22;20036;-86
2023/12/28 07:34:58;;;;;;;19.27;3.03;;;11.70;99.90;;;;;;6335485;22;20002;-86
2023/12/28 07:37:32;;;;;;;12.77;2.80;;;10.90;99.90;;;;;;6336189;22;20419;-86
2023/12/28 07:40:07;;;;;;;9.50;2.95;;;10.60;99.90;;;;;;6334720;22;20006;-88
2023/12/28 07:42:34;;;;;;;13.20;2.50;;;10.70;99.90;;;;;;6335934;22;20007;-86
2023/12/28 07:45:03;;;;;;;12.50;2.85;;;10.70;99.90;;;;;;6336246;22;19998;-86
2023/12/28 07:47:33;;;;;;;18.77;3.37;;;10.70;99.90;;;;;;6334059;22;20715;-86
2023/12/28 07:50:20;;;;;;;21.30;3.43;;;11.60;99.90;;;;;;6335895;22;20018;-87
2023/12/28 07:52:47;;;;;;;20.65;3.35;;;10.70;99.90;;;;;;6337240;22;20018;-86
2023/12/28 07:55:13;;;;;;;12.65;2.40;;;11.60;99.90;;;;;;6335833;22;20007;-88
2023/12/28 07:57:41;;;;;;;18.23;3.50;;;11.00;99.90;;;;;;6338290;22;20049;-87
2023/12/28 08:00:07;;;;;;;12.63;3.10;;;11.80;99.90;;;;;;6336996;22;20044;-87
2023/12/28 08:02:33;;;;;;;21.02;3.58;;;10.80;99.90;;;;;;6334104;22;20015;-93
2023/12/28 08:05:03;;;;;;;18.52;3.38;;;11.70;99.90;;;;;;6337162;22;20036;-83
2023/12/28 08:07:47;;;;;;;25.90;4.72;;;10.70;99.90;;;;;;6332282;22;20009;-88
2023/12/28 08:10:29;;;;;;;17.08;4.05;;;10.70;99.90;;;;;;6337035;22;20018;-85
2023/12/28 08:12:54;;;;;;;20.42;4.60;;;10.70;99.90;;;;;;6335979;22;20048;-83
2023/12/28 08:15:26;;;;;;;16.40;3.85;;;11.50;99.90;;;;;;6334004;22;20454;-84
2023/12/28 08:17:54;;;;;;;15.52;3.65;;;10.20;99.90;;;;;;6334830;22;20086;-85
2023/12/28 08:20:43;;;;;;;19.58;2.58;;;11.60;99.90;;;;;;6336321;22;20312;-87
2023/12/28 08:26:14;;;;;;;22.00;3.38;;;10.70;99.90;;;;;;6335234;22;20030;-85
2023/12/28 08:28:43;;;;;;;15.35;3.28;;;11.70;99.90;;;;;;6335166;22;20245;-84
2023/12/28 08:31:18;;;;;;;23.73;4.28;;;10.80;99.90;;;;;;6335111;22;20036;-87
2023/12/28 08:34:06;;;;;;;24.95;3.38;;;11.50;99.90;;;;;;6333637;22;20003;-84
2023/12/28 08:36:32;;;;;;;19.00;3.08;;;10.50;99.90;;;;;;6334910;22;20010;-83
2023/12/28 08:39:04;;;;;;;25.60;3.63;;;10.80;99.90;;;;;;6338514;22;20503;-83
2023/12/28 08:41:35;;;;;;;15.85;3.63;;;11.30;99.90;;;;;;6336403;22;20063;-87
2023/12/28 08:44:02;;;;;;;20.52;3.30;;;10.70;99.90;;;;;;6333699;22;20018;-82
2023/12/28 08:46:28;;;;;;;23.92;3.70;;;10.80;99.90;;;;;;6334270;22;20088;-84
2023/12/28 08:48:54;;;;;;;22.30;3.25;;;10.80;99.90;;;;;;6334465;22;20010;-85
2023/12/28 08:51:25;;;;;;;18.33;3.35;;;10.80;99.90;;;;;;6333852;22;20015;-86
2023/12/28 08:53:58;;;;;;;29.00;4.93;;;11.10;99.90;;;;;;6333660;22;20052;-86
2023/12/28 08:56:30;;;;;;;18.60;3.30;;;11.60;99.90;;;;;;6335333;22;20030;-86
2023/12/28 08:58:55;;;;;;;17.50;3.88;;;11.80;99.90;;;;;;6333259;22;20010;-81
2023/12/28 09:01:25;;;;;;;21.27;3.70;;;10.80;99.90;;;;;;6333511;22;20017;-83
2023/12/28 09:03:52;;;;;;;21.23;3.95;;;10.80;99.90;;;;;;6306718;22;20037;-84
2023/12/28 09:06:19;;;;;;;21.65;5.35;;;10.80;99.90;;;;;;6333605;22;20003;-83
2023/12/28 09:08:47;;;;;;;26.27;4.93;;;10.80;99.90;;;;;;6334940;22;20052;-87
2023/12/28 09:11:14;;;;;;;20.35;3.85;;;10.80;99.90;;;;;;6334144;22;19998;-85
2023/12/28 09:13:41;;;;;;;15.50;3.92;;;10.80;99.90;;;;;;6336075;22;20014;-88
2023/12/28 09:16:46;;;;;;;17.08;3.60;;;11.00;99.90;;;;;;6334585;22;20003;-90
2023/12/28 09:19:27;;;;;;;22.42;3.88;;;10.80;99.90;;;;;;6335824;22;20034;-90
2023/12/28 09:27:53;;;;;;;20.15;3.42;;;10.50;99.90;;;;;;6337845;22;20064;-89
2023/12/28 09:30:22;;;;;;;23.77;4.45;;;11.20;99.90;;;;;;6335294;22;20068;-89
2023/12/28 09:33:09;;;;;;;21.80;3.25;;;11.60;99.90;;;;;;6333286;22;20010;-92
2023/12/28 09:43:04;;;;;;;23.90;3.70;;;11.20;99.90;;;;;;6269359;22;20425;-89
2023/12/28 09:45:30;;;;;;;14.88;3.20;;;10.90;99.90;;;;;;6154269;23;20012;-87
2023/12/28 09:47:55;;;;;;;15.57;2.50;;;11.80;99.90;;;;;;6203880;23;20008;-88
2023/12/28 09:50:30;;;;;;;26.23;3.70;;;10.20;99.90;;;;;;6156003;23;20016;-87
2023/12/28 09:53:07;;;;;;;24.42;3.85;;;11.30;99.90;;;;;;6208528;23;20001;-90
2023/12/28 09:55:49;;;;;;;23.15;4.47;;;11.00;99.90;;;;;;6206561;23;20485;-88
2023/12/28 10:00:52;;;;;;;20.15;3.47;;;11.00;99.90;;;;;;6346863;22;20088;-87
2023/12/28 10:03:30;;;;;;;20.13;3.47;;;11.90;99.90;;;;;;6341578;22;20060;-86
2023/12/28 10:06:04;;;;;;;24.33;3.92;;;11.80;99.90;;;;;;6334304;22;20017;-85
2023/12/28 10:09:02;;;;;;;15.32;2.92;;;12.00;99.90;;;;;;6337198;22;20026;-88
2023/12/28 10:11:27;;;;;;;13.33;3.03;;;11.60;99.90;;;;;;6271096;22;1237608;-84
2023/12/28 10:13:53;;;;;;;19.40;4.45;;;11.60;99.90;;;;;;6335753;22;20442;-88
2023/12/28 10:16:40;;;;;;;20.88;3.58;;;12.10;99.90;;;;;;6335451;22;20007;-87
2023/12/28 10:19:27;;;;;;;21.95;3.58;;;10.90;99.90;;;;;;6336588;22;20003;-90
2023/12/28 10:22:06;;;;;;;17.38;3.03;;;11.00;99.90;;;;;;6336718;22;20003;-89
2023/12/28 10:24:31;;;;;;;21.15;2.97;;;11.80;99.90;;;;;;6334596;22;20086;-87
2023/12/28 10:27:16;;;;;;;18.95;4.10;;;11.90;99.90;;;;;;6335938;22;20079;-89
2023/12/28 10:29:56;;;;;;;24.95;3.95;;;12.00;99.90;;;;;;6334527;22;20007;-87
2023/12/28 10:35:57;;;;;;;29.67;3.85;;;10.90;99.90;;;;;;6336114;22;20083;-91
2023/12/28 10:38:36;;;;;;;21.73;4.07;;;11.70;99.90;;;;;;6337022;22;20423;-91
2023/12/28 10:44:49;;;;;;;15.82;3.42;;;10.90;99.90;;;;;;6334001;22;20067;-88
2023/12/28 10:47:21;;;;;;;;;;;10.90;99.90;;;;;;6333529;22;20125;-85
2023/12/28 10:50:05;;;;;;;21.88;3.10;;;10.90;99.90;;;;;;6334445;22;20005;-88
2023/12/28 10:52:56;;;;;;;18.98;3.90;;;10.90;99.90;;;;;;6333535;22;20010;-88
2023/12/28 10:56:06;;;;;;;28.25;3.60;;;11.00;99.90;;;;;;6271139;22;20081;-88
2023/12/28 11:01:56;;;;;;;22.77;5.00;;;11.00;99.90;;;;;;6334110;22;20056;-87
2023/12/28 11:04:42;;;;;;;18.38;3.85;;;11.60;99.90;;;;;;6331443;22;20496;-86
2023/12/28 11:07:32;;;;;;;25.20;4.28;;;11.00;99.90;;;;;;6334392;22;20335;-85
2023/12/28 11:10:18;;;;;;;25.58;4.20;;;10.90;99.90;;;;;;6335906;22;20319;-85
2023/12/28 11:13:00;;;;;;;21.63;4.32;;;11.00;99.90;;;;;;6334268;22;20014;-88
2023/12/28 11:15:48;;;;;;;18.05;3.78;;;11.00;99.90;;;;;;6334231;22;20006;-85
2023/12/28 11:20:48;;;;;;;25.33;4.93;;;11.00;99.90;;;;;;6345076;22;20026;-86
2023/12/28 11:23:25;;;;;;;23.73;3.13;;;11.60;99.90;;;;;;6346698;22;20429;-86
2023/12/28 11:25:55;;;;;;;32.92;5.03;;;11.90;99.90;;;;;;6334990;22;20099;-87
2023/12/28 11:28:23;;;;;;;22.98;4.95;;;11.90;99.90;;;;;;6337098;22;20037;-86
2023/12/28 11:30:49;;;;;;;19.40;4.13;;;12.00;99.90;;;;;;6332386;22;20014;-88
2023/12/28 11:33:31;;;;;;;21.73;3.70;;;11.80;99.90;;;;;;6336089;22;20003;-89
2023/12/28 11:36:13;;;;;;;23.38;3.80;;;12.30;99.90;;;;;;6335672;22;20009;-89
2023/12/28 11:38:41;;;;;;;25.42;3.70;;;12.00;99.90;;;;;;6330637;22;20466;-87
2023/12/28 11:41:26;;;;;;;26.40;4.28;;;12.30;99.90;;;;;;6334951;22;20007;-87
2023/12/28 11:44:11;;;;;;;24.80;3.88;;;12.20;99.90;;;;;;6334489;22;19999;-85
2023/12/28 11:46:38;;;;;;;23.52;3.50;;;11.20;99.90;;;;;;6335431;22;20010;-88
2023/12/28 11:49:29;;;;;;;26.73;4.40;;;12.10;99.90;;;;;;6339380;22;20011;-86
2023/12/28 11:52:00;;;;;;;18.10;3.88;;;11.20;99.90;;;;;;6341954;22;19999;-85
2023/12/28 11:54:49;;;;;;;30.95;4.20;;;11.30;99.90;;;;;;6346589;22;19999;-85
2023/12/28 11:57:27;;;;;;;21.33;4.28;;;12.10;99.90;;;;;;6359629;22;20433;-87
2023/12/28 12:00:04;;;;;;;25.23;4.88;;;12.40;99.90;;;;;;6359258;22;20017;-88
2023/12/28 12:02:45;;;;;;;30.08;4.57;;;11.30;99.90;;;;;;6341503;22;20006;-86
2023/12/28 12:05:32;;;;;;;25.52;4.35;;;12.20;99.90;;;;;;6338093;22;20010;-87
2023/12/28 12:08:06;;;;;;;29.02;4.50;;;11.40;99.90;;;;;;6335332;22;20007;-87
2023/12/28 12:11:18;;;;;;;18.75;3.53;;;11.30;99.90;;;;;;6334367;22;20048;-87
2023/12/28 12:13:44;;;;;;;25.08;3.85;;;11.40;99.90;;;;;;6264700;22;20563;-87
2023/12/28 12:16:31;;;;;;;22.88;3.85;;;11.90;99.90;;;;;;6268135;22;20012;-88
2023/12/28 12:19:20;;;;;;;21.85;4.38;;;11.50;99.90;;;;;;6268967;22;20015;-84
2023/12/28 12:21:48;;;;;;;16.70;3.85;;;11.50;99.90;;;;;;6267607;22;20012;-87
2023/12/28 12:24:32;;;;;;;19.23;3.58;;;12.10;99.90;;;;;;6268607;22;20122;-87
2023/12/28 12:27:00;;;;;;;27.52;4.47;;;11.50;99.90;;;;;;6273171;22;20031;-85
2023/12/28 12:29:26;;;;;;;27.85;4.07;;;13.10;99.90;;;;;;6271020;22;20011;-86
2023/12/28 12:32:14;;;;;;;22.10;3.63;;;11.50;99.90;;;;;;6272496;22;20451;-85
2023/12/28 12:34:40;;;;;;;15.13;4.38;;;11.90;99.90;;;;;;6271866;22;20007;-88
2023/12/28 12:37:06;;;;;;;19.13;3.38;;;12.30;99.90;;;;;;6267774;22;20016;-84
2023/12/28 12:39:47;;;;;;;26.08;4.15;;;11.20;99.90;;;;;;6268802;22;20059;-85
2023/12/28 12:42:14;;;;;;;20.52;4.82;;;12.10;99.90;;;;;;6287535;22;20012;-87
2023/12/28 12:44:42;;;;;;;25.58;3.97;;;11.50;99.90;;;;;;6277266;22;20008;-88
2023/12/28 12:47:25;;;;;;;29.08;4.03;;;12.70;99.90;;;;;;6272711;22;20013;-87
2023/12/28 12:49:56;;;;;;;23.50;4.57;;;12.50;99.90;;;;;;6322835;22;19998;-88
2023/12/28 12:52:45;;;;;;;20.55;4.72;;;12.40;99.90;;;;;;6336816;22;20003;-87
2023/12/28 12:55:12;;;;;;;25.25;3.90;;;11.50;99.90;;;;;;6337012;22;20368;-86
2023/12/28 12:57:40;;;;;;;24.92;4.15;;;12.50;99.90;;;;;;6337456;22;20014;-87
2023/12/28 13:00:22;;;;;;;24.83;4.43;;;12.70;99.90;;;;;;6337540;22;20038;-87
2023/12/28 13:02:53;;;;;;;19.70;3.72;;;11.40;99.90;;;;;;6337704;22;20003;-88
2023/12/28 13:05:30;;;;;;;14.82;3.85;;;12.20;99.90;;;;;;6335099;22;19995;-88
2023/12/28 13:07:57;;;;;;;19.15;4.25;;;12.20;99.90;;;;;;6337129;22;20318;-89
2023/12/28 13:10:23;;;;;;;24.38;5.20;;;12.40;99.90;;;;;;6336768;22;20373;-88
2023/12/28 13:13:11;;;;;;;22.48;3.80;;;12.40;99.90;;;;;;6336466;22;20002;-87
2023/12/28 13:15:47;;;;;;;20.67;3.75;;;11.30;99.90;;;;;;6336244;22;20002;-88
2023/12/28 13:18:14;;;;;;;17.83;2.97;;;11.50;99.90;;;;;;6336450;22;20081;-87
2023/12/28 13:20:54;;;;;;;23.35;4.07;;;12.30;99.90;;;;;;6334951;22;20019;-88
2023/12/28 13:23:20;;;;;;;33.67;4.72;;;12.30;99.90;;;;;;6336796;22;19999;-88
2023/12/28 13:25:46;;;;;;;23.95;3.92;;;12.50;99.90;;;;;;6336402;22;20001;-87
2023/12/28 13:28:30;;;;;;;27.35;5.00;;;11.40;99.90;;;;;;6337086;22;19998;-87
2023/12/28 13:30:56;;;;;;;25.52;4.47;;;10.60;99.90;;;;;;6339134;22;20066;-85
2023/12/28 13:33:24;;;;;;;19.17;4.85;;;12.10;99.90;;;;;;6338387;22;20075;-86
2023/12/28 13:35:56;;;;;;;21.50;5.20;;;12.10;99.90;;;;;;6336950;22;20003;-86
2023/12/28 13:38:25;;;;;;;22.90;4.25;;;12.50;99.90;;;;;;6335965;22;20010;-90
2023/12/28 13:40:52;;;;;;;23.48;3.95;;;12.20;99.90;;;;;;6337259;22;20007;-87
2023/12/28 13:43:18;;;;;;;27.75;4.95;;;12.20;99.90;;;;;;6336867;22;20486;-87
2023/12/28 13:45:44;;;;;;;25.73;3.53;;;12.30;99.90;;;;;;6336333;22;20074;-87
2023/12/28 13:48:11;;;;;;;32.20;5.53;;;11.40;99.90;;;;;;6335806;22;20030;-88
2023/12/28 13:50:37;;;;;;;20.65;3.78;;;11.40;99.90;;;;;;6336608;22;20034;-87
2023/12/28 13:53:06;;;;;;;20.08;3.90;;;11.40;99.90;;;;;;6337779;22;19999;-88